createdAt,value
2017-02-28T00:00:01.168Z,0
2017-02-28T00:01:02.390Z,0
2017-02-28T00:02:03.613Z,0
2017-02-28T00:03:04.852Z,0
2017-02-28T00:04:06.110Z,0
2017-02-28T00:05:07.367Z,0
2017-02-28T00:06:08.580Z,0
2017-02-28T00:07:09.817Z,0
2017-02-28T00:08:11.141Z,0
2017-02-28T00:09:12.377Z,0
2017-02-28T00:10:13.618Z,0
2017-02-28T00:11:14.850Z,0
2017-02-28T00:12:16.090Z,0
2017-02-28T00:13:17.345Z,0
2017-02-28T00:14:18.687Z,0
2017-02-28T00:15:19.885Z,0
2017-02-28T00:16:21.122Z,0
2017-02-28T00:17:22.357Z,0
2017-02-28T00:18:23.622Z,0
2017-02-28T00:19:24.874Z,0
2017-02-28T00:20:26.120Z,0
2017-02-28T00:21:27.359Z,0
2017-02-28T00:22:28.672Z,0
2017-02-28T00:23:29.925Z,0
2017-02-28T00:24:31.166Z,0
2017-02-28T00:25:32.526Z,0
2017-02-28T00:26:33.774Z,0
2017-02-28T00:27:35.034Z,0
2017-02-28T00:28:36.301Z,0
2017-02-28T00:29:37.531Z,0
2017-02-28T00:30:38.785Z,0
2017-02-28T00:31:40.015Z,0
2017-02-28T00:32:41.251Z,0
2017-02-28T00:33:42.508Z,0
2017-02-28T00:34:43.738Z,0
2017-02-28T00:35:44.979Z,0
2017-02-28T00:36:46.223Z,0
2017-02-28T00:37:47.465Z,0
2017-02-28T00:38:48.708Z,0
2017-02-28T00:39:49.945Z,0
2017-02-28T00:40:51.194Z,0
2017-02-28T00:41:52.451Z,0
2017-02-28T00:42:53.691Z,0
2017-02-28T00:43:54.952Z,0
2017-02-28T00:44:56.243Z,0
2017-02-28T00:45:57.478Z,0
2017-02-28T00:46:58.735Z,0
2017-02-28T00:47:59.972Z,0
2017-02-28T00:49:01.249Z,0
2017-02-28T00:50:02.490Z,0
2017-02-28T00:51:03.723Z,0
2017-02-28T00:52:05.011Z,0
2017-02-28T00:53:06.256Z,0
2017-02-28T00:54:07.501Z,0
2017-02-28T00:55:08.758Z,0
2017-02-28T00:56:09.980Z,0
2017-02-28T00:57:11.369Z,0
2017-02-28T00:58:12.690Z,0
2017-02-28T00:59:13.973Z,0
2017-02-28T01:00:15.206Z,0
2017-02-28T01:01:16.458Z,0
2017-02-28T01:02:17.681Z,0
2017-02-28T01:03:18.945Z,0
2017-02-28T01:04:20.155Z,0
2017-02-28T01:05:21.391Z,0
2017-02-28T01:06:22.629Z,0
2017-02-28T01:07:23.859Z,0
2017-02-28T01:08:25.088Z,0
2017-02-28T01:09:26.365Z,0
2017-02-28T01:10:27.629Z,0
2017-02-28T01:11:28.883Z,0
2017-02-28T01:12:30.119Z,0
2017-02-28T01:13:31.360Z,0
2017-02-28T01:14:32.584Z,0
2017-02-28T01:15:33.815Z,0
2017-02-28T01:16:35.053Z,0
2017-02-28T01:17:36.302Z,0
2017-02-28T01:18:37.559Z,0
2017-02-28T01:19:38.819Z,0
2017-02-28T01:20:40.029Z,0
2017-02-28T01:21:41.267Z,0
2017-02-28T01:22:42.510Z,0
2017-02-28T01:23:43.741Z,0
2017-02-28T01:24:45.030Z,0
2017-02-28T01:25:46.282Z,0
2017-02-28T01:26:47.516Z,0
2017-02-28T01:27:48.756Z,0
2017-02-28T01:28:50.014Z,0
2017-02-28T01:29:51.332Z,0
2017-02-28T01:30:52.562Z,0
2017-02-28T01:31:53.801Z,0
2017-02-28T01:32:55.056Z,0
2017-02-28T01:33:56.281Z,0
2017-02-28T01:34:57.510Z,0
2017-02-28T01:35:58.751Z,0
2017-02-28T01:37:00.025Z,0
2017-02-28T01:38:01.326Z,0
2017-02-28T01:39:02.668Z,0
2017-02-28T01:40:03.905Z,0
2017-02-28T01:41:05.116Z,0
2017-02-28T01:42:06.362Z,0
2017-02-28T01:43:07.590Z,0
2017-02-28T01:44:08.952Z,0
2017-02-28T01:45:10.191Z,0
2017-02-28T01:46:11.430Z,0
2017-02-28T01:47:12.659Z,0
2017-02-28T01:48:13.885Z,0
2017-02-28T01:49:15.192Z,0
2017-02-28T01:50:16.428Z,0
2017-02-28T01:51:17.647Z,0
2017-02-28T01:52:18.928Z,0
2017-02-28T01:53:20.168Z,0
2017-02-28T01:54:21.415Z,0
2017-02-28T01:55:22.657Z,0
2017-02-28T01:56:23.894Z,0
2017-02-28T01:57:25.240Z,0
2017-02-28T01:58:26.495Z,0
2017-02-28T01:59:27.723Z,0
2017-02-28T02:00:28.957Z,0
2017-02-28T02:01:30.205Z,0
2017-02-28T02:02:31.437Z,0
2017-02-28T02:03:32.685Z,0
2017-02-28T02:04:33.937Z,0
2017-02-28T02:05:35.178Z,0
2017-02-28T02:06:36.423Z,0
2017-02-28T02:07:37.667Z,0
2017-02-28T02:08:38.928Z,0
2017-02-28T02:09:40.123Z,0
2017-02-28T02:10:41.399Z,0
2017-02-28T02:11:42.632Z,0
2017-02-28T02:12:43.886Z,0
2017-02-28T02:13:45.098Z,0
2017-02-28T02:14:46.367Z,0
2017-02-28T02:15:47.626Z,0
2017-02-28T02:16:49.027Z,0
2017-02-28T02:17:50.274Z,0
2017-02-28T02:18:51.506Z,0
2017-02-28T02:19:52.733Z,0
2017-02-28T02:20:53.991Z,0
2017-02-28T02:21:55.227Z,0
2017-02-28T02:22:56.450Z,0
2017-02-28T02:23:57.779Z,0
2017-02-28T02:24:59.038Z,0
2017-02-28T02:26:00.305Z,0
2017-02-28T02:27:01.540Z,0
2017-02-28T02:28:02.775Z,0
2017-02-28T02:29:04.125Z,0
2017-02-28T02:30:05.305Z,0
2017-02-28T02:31:06.590Z,0
2017-02-28T02:32:07.843Z,0
2017-02-28T02:33:09.079Z,0
2017-02-28T02:34:10.316Z,0
2017-02-28T02:35:11.564Z,0
2017-02-28T02:36:12.812Z,0
2017-02-28T02:37:14.105Z,0
2017-02-28T02:38:15.340Z,0
2017-02-28T02:39:16.695Z,0
2017-02-28T02:40:17.916Z,0
2017-02-28T02:41:19.202Z,0
2017-02-28T02:42:20.452Z,0
2017-02-28T02:43:21.685Z,0
2017-02-28T02:44:23.012Z,0
2017-02-28T02:45:24.249Z,0
2017-02-28T02:46:25.571Z,0
2017-02-28T02:47:26.807Z,0
2017-02-28T02:48:28.062Z,0
2017-02-28T02:49:29.293Z,0
2017-02-28T02:50:30.628Z,0
2017-02-28T02:51:31.876Z,0
2017-02-28T02:52:33.112Z,0
2017-02-28T02:53:34.376Z,0
2017-02-28T02:54:35.586Z,0
2017-02-28T02:55:36.813Z,0
2017-02-28T02:56:38.048Z,0
2017-02-28T02:57:39.296Z,0
2017-02-28T02:58:40.630Z,0
2017-02-28T02:59:41.881Z,0
2017-02-28T03:00:43.168Z,0
2017-02-28T03:01:44.424Z,0
2017-02-28T03:02:45.663Z,0
2017-02-28T03:03:46.896Z,0
2017-02-28T03:04:48.121Z,0
2017-02-28T03:05:49.354Z,0
2017-02-28T03:06:50.602Z,0
2017-02-28T03:07:51.837Z,0
2017-02-28T03:08:53.084Z,0
2017-02-28T03:09:54.350Z,0
2017-02-28T03:10:55.547Z,0
2017-02-28T03:11:56.785Z,0
2017-02-28T03:12:58.018Z,0
2017-02-28T03:13:59.256Z,0
2017-02-28T03:15:00.525Z,0
2017-02-28T03:16:01.879Z,0
2017-02-28T03:17:03.107Z,0
2017-02-28T03:18:04.369Z,0
2017-02-28T03:19:05.592Z,0
2017-02-28T03:20:06.842Z,0
2017-02-28T03:21:08.151Z,0
2017-02-28T03:22:09.371Z,0
2017-02-28T03:23:10.616Z,0
2017-02-28T03:24:11.840Z,0
2017-02-28T03:25:13.069Z,0
2017-02-28T03:26:14.343Z,0
2017-02-28T03:27:15.585Z,0
2017-02-28T03:28:16.958Z,0
2017-02-28T03:29:18.239Z,0
2017-02-28T03:30:19.424Z,0
2017-02-28T03:31:20.662Z,0
2017-02-28T03:32:21.888Z,0
2017-02-28T03:33:23.131Z,0
2017-02-28T03:34:24.372Z,0
2017-02-28T03:35:25.596Z,0
2017-02-28T03:36:26.878Z,0
2017-02-28T03:37:28.099Z,0
2017-02-28T03:38:29.337Z,0
2017-02-28T03:39:30.583Z,0
2017-02-28T03:40:31.814Z,0
2017-02-28T03:41:33.052Z,0
2017-02-28T03:42:34.297Z,0
2017-02-28T03:43:35.544Z,0
2017-02-28T03:44:36.803Z,0
2017-02-28T03:45:38.026Z,0
2017-02-28T03:46:39.301Z,0
2017-02-28T03:47:40.566Z,0
2017-02-28T03:48:41.805Z,0
2017-02-28T03:49:43.037Z,0
2017-02-28T03:50:44.262Z,0
2017-02-28T03:51:45.507Z,0
2017-02-28T03:52:46.737Z,0
2017-02-28T03:53:48.005Z,0
2017-02-28T03:54:49.288Z,0
2017-02-28T03:55:50.534Z,0
2017-02-28T03:56:51.781Z,0
2017-02-28T03:57:53.019Z,0
2017-02-28T03:58:54.256Z,0
2017-02-28T03:59:55.568Z,0
2017-02-28T04:00:56.944Z,0
2017-02-28T04:01:58.235Z,0
2017-02-28T04:02:59.485Z,0
2017-02-28T04:04:00.706Z,0
2017-02-28T04:05:01.949Z,0
2017-02-28T04:06:03.219Z,0
2017-02-28T04:07:04.478Z,0
2017-02-28T04:08:05.703Z,0
2017-02-28T04:09:06.947Z,0
2017-02-28T04:10:08.186Z,0
2017-02-28T04:11:09.430Z,0
2017-02-28T04:12:10.713Z,0
2017-02-28T04:13:12.080Z,0
2017-02-28T04:14:13.298Z,0
2017-02-28T04:15:14.538Z,0
2017-02-28T04:16:15.758Z,0
2017-02-28T04:17:16.998Z,0
2017-02-28T04:18:18.234Z,0
2017-02-28T04:19:19.473Z,0
2017-02-28T04:20:20.754Z,0
2017-02-28T04:21:22.009Z,0
2017-02-28T04:22:23.234Z,0
2017-02-28T04:23:24.496Z,0
2017-02-28T04:24:25.720Z,0
2017-02-28T04:25:27.071Z,0
2017-02-28T04:26:28.376Z,0
2017-02-28T04:27:29.618Z,0
2017-02-28T04:28:30.856Z,0
2017-02-28T04:29:32.086Z,0
2017-02-28T04:30:33.313Z,0
2017-02-28T04:31:34.629Z,0
2017-02-28T04:32:35.953Z,0
2017-02-28T04:33:37.429Z,0
2017-02-28T04:34:38.681Z,0
2017-02-28T04:35:39.913Z,0
2017-02-28T04:36:41.211Z,0
2017-02-28T04:37:42.488Z,0
2017-02-28T04:38:43.716Z,0
2017-02-28T04:39:44.947Z,0
2017-02-28T04:40:46.196Z,0
2017-02-28T04:41:47.435Z,0
2017-02-28T04:42:48.693Z,0
2017-02-28T04:43:49.922Z,0
2017-02-28T04:44:51.154Z,0
2017-02-28T04:45:52.383Z,0
2017-02-28T04:46:53.613Z,0
2017-02-28T04:47:54.841Z,0
2017-02-28T04:48:56.070Z,0
2017-02-28T04:49:57.305Z,0
2017-02-28T04:50:58.558Z,0
2017-02-28T04:51:59.871Z,0
2017-02-28T04:53:01.137Z,0
2017-02-28T04:54:02.364Z,0
2017-02-28T04:55:03.586Z,0
2017-02-28T04:56:04.825Z,0
2017-02-28T04:57:06.076Z,0
2017-02-28T04:58:07.318Z,0
2017-02-28T04:59:08.592Z,0
2017-02-28T05:00:09.826Z,0
2017-02-28T05:01:11.066Z,0
2017-02-28T05:02:12.289Z,0
2017-02-28T05:03:13.592Z,0
2017-02-28T05:04:14.843Z,0
2017-02-28T05:05:16.088Z,0
2017-02-28T05:06:17.317Z,0
2017-02-28T05:07:18.599Z,0
2017-02-28T05:08:19.853Z,0
2017-02-28T05:09:21.067Z,0
2017-02-28T05:10:22.310Z,0
2017-02-28T05:11:23.533Z,0
2017-02-28T05:12:24.791Z,0
2017-02-28T05:13:26.013Z,0
2017-02-28T05:14:27.254Z,0
2017-02-28T05:15:28.501Z,0
2017-02-28T05:16:29.732Z,0
2017-02-28T05:17:30.951Z,0
2017-02-28T05:18:32.296Z,0
2017-02-28T05:19:33.554Z,0
2017-02-28T05:20:34.795Z,0
2017-02-28T05:21:36.003Z,0
2017-02-28T05:22:37.335Z,0
2017-02-28T05:23:38.601Z,0
2017-02-28T05:24:39.834Z,0
2017-02-28T05:25:41.235Z,0
2017-02-28T05:26:42.453Z,0
2017-02-28T05:27:43.683Z,0
2017-02-28T05:28:45.014Z,0
2017-02-28T05:29:46.273Z,0
2017-02-28T05:30:47.542Z,0
2017-02-28T05:31:48.773Z,0
2017-02-28T05:32:50.006Z,0
2017-02-28T05:33:51.247Z,0
2017-02-28T05:34:52.655Z,0
2017-02-28T05:35:53.771Z,0
2017-02-28T05:36:55.113Z,0
2017-02-28T05:37:56.321Z,0
2017-02-28T05:38:57.552Z,0
2017-02-28T05:39:58.775Z,0
2017-02-28T05:41:00.030Z,0
2017-02-28T05:42:01.268Z,0
2017-02-28T05:43:02.511Z,0
2017-02-28T05:44:03.735Z,0
2017-02-28T05:45:04.970Z,0
2017-02-28T05:46:06.197Z,0
2017-02-28T05:47:07.437Z,0
2017-02-28T05:48:08.689Z,0
2017-02-28T05:49:09.914Z,4
2017-02-28T05:50:11.293Z,4
2017-02-28T05:51:12.554Z,4
2017-02-28T05:52:13.793Z,0
2017-02-28T05:53:15.052Z,0
2017-02-28T05:54:16.258Z,4
2017-02-28T05:55:17.575Z,4
2017-02-28T05:56:19.054Z,8
2017-02-28T05:57:20.333Z,8
2017-02-28T05:58:21.551Z,8
2017-02-28T05:59:22.788Z,12
2017-02-28T06:00:24.025Z,12
2017-02-28T06:01:25.347Z,16
2017-02-28T06:02:26.605Z,16
2017-02-28T06:03:27.833Z,20
2017-02-28T06:04:29.071Z,24
2017-02-28T06:05:30.312Z,24
2017-02-28T06:06:31.575Z,28
2017-02-28T06:07:32.877Z,28
2017-02-28T06:08:34.176Z,32
2017-02-28T06:09:35.412Z,40
2017-02-28T06:10:36.648Z,52
2017-02-28T06:11:37.880Z,60
2017-02-28T06:12:39.106Z,72
2017-02-28T06:13:40.348Z,84
2017-02-28T06:14:41.587Z,88
2017-02-28T06:15:42.835Z,84
2017-02-28T06:16:44.073Z,96
2017-02-28T06:17:45.334Z,104
2017-02-28T06:18:46.572Z,120
2017-02-28T06:19:47.911Z,128
2017-02-28T06:20:49.163Z,128
2017-02-28T06:21:50.528Z,120
2017-02-28T06:22:51.744Z,120
2017-02-28T06:23:52.978Z,120
2017-02-28T06:24:54.221Z,140
2017-02-28T06:25:55.528Z,184
2017-02-28T06:26:56.840Z,208
2017-02-28T06:27:58.176Z,188
2017-02-28T06:28:59.413Z,172
2017-02-28T06:30:00.643Z,152
2017-02-28T06:31:01.880Z,156
2017-02-28T06:32:03.125Z,176
2017-02-28T06:33:04.364Z,216
2017-02-28T06:34:05.599Z,216
2017-02-28T06:35:06.866Z,252
2017-02-28T06:36:08.113Z,280
2017-02-28T06:37:09.328Z,260
2017-02-28T06:38:10.558Z,252
2017-02-28T06:39:11.786Z,320
2017-02-28T06:40:13.095Z,376
2017-02-28T06:41:14.334Z,416
2017-02-28T06:42:15.575Z,412
2017-02-28T06:43:16.874Z,472
2017-02-28T06:44:18.107Z,508
2017-02-28T06:45:19.386Z,600
2017-02-28T06:46:20.747Z,644
2017-02-28T06:47:21.999Z,684
2017-02-28T06:48:23.259Z,732
2017-02-28T06:49:24.496Z,700
2017-02-28T06:50:25.820Z,708
2017-02-28T06:51:27.102Z,700
2017-02-28T06:52:28.375Z,804
2017-02-28T06:53:29.595Z,1004
2017-02-28T06:54:30.852Z,1104
2017-02-28T06:55:32.095Z,1228
2017-02-28T06:56:33.334Z,1296
2017-02-28T06:57:34.677Z,1456
2017-02-28T06:58:35.840Z,1652
2017-02-28T06:59:37.105Z,1428
2017-02-28T07:00:38.342Z,1080
2017-02-28T07:01:39.567Z,1196
2017-02-28T07:02:40.807Z,1320
2017-02-28T07:03:42.063Z,1520
2017-02-28T07:04:43.343Z,1412
2017-02-28T07:05:44.613Z,1136
2017-02-28T07:06:45.847Z,872
2017-02-28T07:07:47.134Z,672
2017-02-28T07:08:48.363Z,724
2017-02-28T07:09:49.601Z,864
2017-02-28T07:10:50.884Z,948
2017-02-28T07:11:52.156Z,952
2017-02-28T07:12:53.370Z,536
2017-02-28T07:13:54.633Z,700
2017-02-28T07:14:55.868Z,932
2017-02-28T07:15:57.101Z,752
2017-02-28T07:16:58.343Z,692
2017-02-28T07:17:59.575Z,1144
2017-02-28T07:19:00.994Z,1000
2017-02-28T07:20:02.254Z,1160
2017-02-28T07:21:03.466Z,1296
2017-02-28T07:22:04.729Z,1244
2017-02-28T07:23:05.956Z,1692
2017-02-28T07:24:07.181Z,1952
2017-02-28T07:25:08.430Z,1328
2017-02-28T07:26:09.687Z,780
2017-02-28T07:27:10.988Z,804
2017-02-28T07:28:12.216Z,840
2017-02-28T07:29:13.433Z,1028
2017-02-28T07:30:14.688Z,1372
2017-02-28T07:31:15.955Z,1100
2017-02-28T07:32:17.207Z,1232
2017-02-28T07:33:18.535Z,1672
2017-02-28T07:34:19.753Z,1304
2017-02-28T07:35:20.973Z,880
2017-02-28T07:36:22.200Z,844
2017-02-28T07:37:23.439Z,960
2017-02-28T07:38:24.686Z,1024
2017-02-28T07:39:25.911Z,1028
2017-02-28T07:40:27.151Z,1572
2017-02-28T07:41:28.403Z,2908
2017-02-28T07:42:29.669Z,4604
2017-02-28T07:43:30.922Z,5040
2017-02-28T07:44:32.177Z,4272
2017-02-28T07:45:33.402Z,4616
2017-02-28T07:46:34.663Z,5736
2017-02-28T07:47:35.910Z,6160
2017-02-28T07:48:37.133Z,6568
2017-02-28T07:49:38.372Z,5944
2017-02-28T07:50:39.620Z,7524
2017-02-28T07:51:40.982Z,5076
2017-02-28T07:52:42.276Z,4588
2017-02-28T07:53:43.513Z,3988
2017-02-28T07:54:44.784Z,3892
2017-02-28T07:55:46.024Z,4204
2017-02-28T07:56:47.309Z,3052
2017-02-28T07:57:48.531Z,3148
2017-02-28T07:58:49.754Z,2928
2017-02-28T07:59:50.979Z,2104
2017-02-28T08:00:52.200Z,1908
2017-02-28T08:01:53.430Z,2012
2017-02-28T08:02:54.668Z,2376
2017-02-28T08:03:55.897Z,2124
2017-02-28T08:04:57.286Z,2416
2017-02-28T08:05:58.614Z,3024
2017-02-28T08:06:59.845Z,2460
2017-02-28T08:08:01.092Z,3092
2017-02-28T08:09:02.349Z,3424
2017-02-28T08:10:03.573Z,4524
2017-02-28T08:11:04.833Z,5132
2017-02-28T08:12:06.045Z,5492
2017-02-28T08:13:07.283Z,5952
2017-02-28T08:14:08.519Z,5356
2017-02-28T08:15:09.823Z,5164
2017-02-28T08:16:11.068Z,4772
2017-02-28T08:17:12.345Z,4840
2017-02-28T08:18:13.602Z,4936
2017-02-28T08:19:14.844Z,4900
2017-02-28T08:20:16.105Z,5392
2017-02-28T08:21:17.315Z,4720
2017-02-28T08:22:18.588Z,6948
2017-02-28T08:23:19.824Z,7780
2017-02-28T08:24:21.123Z,6224
2017-02-28T08:25:22.422Z,5488
2017-02-28T08:26:23.657Z,6100
2017-02-28T08:27:24.966Z,5700
2017-02-28T08:28:26.205Z,3568
2017-02-28T08:29:27.648Z,3224
2017-02-28T08:30:28.943Z,3268
2017-02-28T08:31:30.155Z,2876
2017-02-28T08:32:31.391Z,2736
2017-02-28T08:33:32.651Z,3488
2017-02-28T08:34:33.965Z,3676
2017-02-28T08:35:35.193Z,2984
2017-02-28T08:36:36.408Z,2432
2017-02-28T08:37:37.659Z,2272
2017-02-28T08:38:38.874Z,1956
2017-02-28T08:39:40.112Z,1628
2017-02-28T08:40:41.448Z,1608
2017-02-28T08:41:42.693Z,1828
2017-02-28T08:42:43.928Z,1800
2017-02-28T08:43:45.180Z,1724
2017-02-28T08:44:46.403Z,1940
2017-02-28T08:45:47.644Z,2128
2017-02-28T08:46:48.872Z,1764
2017-02-28T08:47:50.112Z,1512
2017-02-28T08:48:51.353Z,1544
2017-02-28T08:49:52.600Z,2208
2017-02-28T08:50:53.858Z,1972
2017-02-28T08:51:55.079Z,2144
2017-02-28T08:52:56.325Z,2556
2017-02-28T08:53:57.562Z,3220
2017-02-28T08:54:58.813Z,2524
2017-02-28T08:56:00.135Z,2596
2017-02-28T08:57:01.394Z,3100
2017-02-28T08:58:02.592Z,2552
2017-02-28T08:59:03.829Z,1940
2017-02-28T09:00:05.099Z,1844
2017-02-28T09:01:06.343Z,2520
2017-02-28T09:02:07.608Z,2520
2017-02-28T09:03:08.921Z,2664
2017-02-28T09:04:10.148Z,2976
2017-02-28T09:05:11.383Z,3080
2017-02-28T09:06:12.796Z,2784
2017-02-28T09:07:14.027Z,2452
2017-02-28T09:08:15.296Z,1744
2017-02-28T09:09:16.624Z,1992
2017-02-28T09:10:17.867Z,2272
2017-02-28T09:11:19.087Z,2196
2017-02-28T09:12:20.332Z,1988
2017-02-28T09:13:21.643Z,2024
2017-02-28T09:14:23.080Z,1824
2017-02-28T09:15:24.318Z,2596
2017-02-28T09:16:25.552Z,2520
2017-02-28T09:17:26.854Z,2640
2017-02-28T09:18:28.053Z,3568
2017-02-28T09:19:29.364Z,4000
2017-02-28T09:20:30.618Z,3920
2017-02-28T09:21:31.862Z,3656
2017-02-28T09:22:33.076Z,3480
2017-02-28T09:23:34.312Z,5488
2017-02-28T09:24:35.549Z,6644
2017-02-28T09:25:36.780Z,6168
2017-02-28T09:26:38.157Z,6572
2017-02-28T09:27:39.383Z,6796
2017-02-28T09:28:40.597Z,9256
2017-02-28T09:29:41.828Z,10092
2017-02-28T09:30:43.091Z,8744
2017-02-28T09:31:44.325Z,10844
2017-02-28T09:32:45.565Z,32224
2017-02-28T09:33:46.877Z,16960
2017-02-28T09:34:48.097Z,14584
2017-02-28T09:35:49.333Z,15676
2017-02-28T09:36:50.573Z,11636
2017-02-28T09:37:51.804Z,12424
2017-02-28T09:38:53.092Z,8444
2017-02-28T09:39:54.308Z,6124
2017-02-28T09:40:55.550Z,6520
2017-02-28T09:41:56.788Z,6112
2017-02-28T09:42:58.027Z,6128
2017-02-28T09:43:59.268Z,5996
2017-02-28T09:45:00.596Z,7676
2017-02-28T09:46:01.768Z,10024
2017-02-28T09:47:03.017Z,10836
2017-02-28T09:48:04.252Z,11556
2017-02-28T09:49:05.498Z,11960
2017-02-28T09:50:06.721Z,12704
2017-02-28T09:51:07.968Z,8828
2017-02-28T09:52:09.250Z,13648
2017-02-28T09:53:10.461Z,13852
2017-02-28T09:54:11.725Z,23296
2017-02-28T09:55:12.966Z,21856
2017-02-28T09:56:14.214Z,20512
2017-02-28T09:57:15.436Z,19008
2017-02-28T09:58:16.676Z,15520
2017-02-28T09:59:17.925Z,13036
2017-02-28T10:00:19.168Z,11772
2017-02-28T10:01:20.473Z,8988
2017-02-28T10:02:21.700Z,9088
2017-02-28T10:03:22.941Z,8840
2017-02-28T10:04:24.180Z,7260
2017-02-28T10:05:25.441Z,6460
2017-02-28T10:06:26.752Z,5692
2017-02-28T10:07:27.997Z,5172
2017-02-28T10:08:29.238Z,4304
2017-02-28T10:09:30.477Z,4080
2017-02-28T10:10:31.758Z,3688
2017-02-28T10:11:33.005Z,3404
2017-02-28T10:12:34.302Z,3920
2017-02-28T10:13:35.534Z,3504
2017-02-28T10:14:36.793Z,4636
2017-02-28T10:15:38.055Z,6656
2017-02-28T10:16:39.270Z,6076
2017-02-28T10:17:40.515Z,6432
2017-02-28T10:18:41.757Z,5960
2017-02-28T10:19:43.001Z,6748
2017-02-28T10:20:44.246Z,6504
2017-02-28T10:21:45.470Z,8428
2017-02-28T10:22:46.713Z,6256
2017-02-28T10:23:47.997Z,6212
2017-02-28T10:24:49.266Z,6316
2017-02-28T10:25:50.609Z,5456
2017-02-28T10:26:51.833Z,5988
2017-02-28T10:27:53.144Z,5880
2017-02-28T10:28:54.422Z,6792
2017-02-28T10:29:55.907Z,6548
2017-02-28T10:30:57.304Z,5268
2017-02-28T10:31:58.618Z,6176
2017-02-28T10:32:59.865Z,7012
2017-02-28T10:34:01.081Z,7548
2017-02-28T10:35:02.316Z,5816
2017-02-28T10:36:03.557Z,7884
2017-02-28T10:37:04.805Z,9180
2017-02-28T10:38:06.045Z,7712
2017-02-28T10:39:07.286Z,8372
2017-02-28T10:40:08.521Z,11460
2017-02-28T10:41:09.801Z,14212
2017-02-28T10:42:11.044Z,12996
2017-02-28T10:43:12.362Z,12332
2017-02-28T10:44:13.685Z,10544
2017-02-28T10:45:14.889Z,10740
2017-02-28T10:46:16.139Z,12132
2017-02-28T10:47:17.418Z,10052
2017-02-28T10:48:18.715Z,10816
2017-02-28T10:49:19.964Z,11656
2017-02-28T10:50:21.227Z,11548
2017-02-28T10:51:22.473Z,8124
2017-02-28T10:52:23.719Z,11352
2017-02-28T10:53:25.052Z,14804
2017-02-28T10:54:26.284Z,11616
2017-02-28T10:55:27.599Z,9792
2017-02-28T10:56:28.863Z,8648
2017-02-28T10:57:30.111Z,7328
2017-02-28T10:58:31.357Z,8560
2017-02-28T10:59:32.627Z,6652
2017-02-28T11:00:33.845Z,4720
2017-02-28T11:01:35.097Z,5048
2017-02-28T11:02:36.334Z,8020
2017-02-28T11:03:37.583Z,7416
2017-02-28T11:04:38.854Z,10304
2017-02-28T11:05:40.112Z,11128
2017-02-28T11:06:41.332Z,11152
2017-02-28T11:07:42.591Z,12120
2017-02-28T11:08:43.812Z,11528
2017-02-28T11:09:45.063Z,11280
2017-02-28T11:10:46.319Z,12168
2017-02-28T11:11:47.531Z,13008
2017-02-28T11:12:48.758Z,13732
2017-02-28T11:13:49.996Z,16864
2017-02-28T11:14:51.422Z,14404
2017-02-28T11:15:52.655Z,14560
2017-02-28T11:16:53.884Z,13628
2017-02-28T11:17:55.120Z,12528
2017-02-28T11:18:56.364Z,12188
2017-02-28T11:19:57.653Z,11324
2017-02-28T11:20:58.947Z,9948
2017-02-28T11:22:00.213Z,7816
2017-02-28T11:23:01.451Z,6540
2017-02-28T11:24:02.679Z,5968
2017-02-28T11:25:03.918Z,5380
2017-02-28T11:26:05.166Z,4984
2017-02-28T11:27:06.427Z,5420
2017-02-28T11:28:07.720Z,5676
2017-02-28T11:29:09.054Z,6568
2017-02-28T11:30:10.273Z,7764
2017-02-28T11:31:11.517Z,7772
2017-02-28T11:32:12.904Z,7580
2017-02-28T11:33:14.181Z,7352
2017-02-28T11:34:15.428Z,6748
2017-02-28T11:35:16.743Z,5976
2017-02-28T11:36:17.981Z,6144
2017-02-28T11:37:19.247Z,6888
2017-02-28T11:38:20.490Z,6992
2017-02-28T11:39:21.725Z,6368
2017-02-28T11:40:23.012Z,8216
2017-02-28T11:41:24.251Z,8184
2017-02-28T11:42:25.476Z,7652
2017-02-28T11:43:26.727Z,7720
2017-02-28T11:44:27.964Z,9092
2017-02-28T11:45:29.291Z,10064
2017-02-28T11:46:30.538Z,9936
2017-02-28T11:47:31.775Z,10732
2017-02-28T11:48:33.019Z,11020
2017-02-28T11:49:34.274Z,11732
2017-02-28T11:50:35.486Z,11660
2017-02-28T11:51:36.782Z,8732
2017-02-28T11:52:38.004Z,8028
2017-02-28T11:53:39.339Z,8908
2017-02-28T11:54:40.732Z,10392
2017-02-28T11:55:41.949Z,10488
2017-02-28T11:56:43.182Z,10896
2017-02-28T11:57:44.419Z,11128
2017-02-28T11:58:45.674Z,12132
2017-02-28T11:59:46.952Z,12400
2017-02-28T12:00:48.195Z,11188
2017-02-28T12:01:49.429Z,10332
2017-02-28T12:02:50.670Z,10276
2017-02-28T12:03:51.916Z,10164
2017-02-28T12:04:53.204Z,10516
2017-02-28T12:05:54.470Z,11064
2017-02-28T12:06:55.707Z,11832
2017-02-28T12:07:57.037Z,12452
2017-02-28T12:08:58.263Z,13748
2017-02-28T12:09:59.504Z,11212
2017-02-28T12:11:00.781Z,10844
2017-02-28T12:12:02.022Z,12232
2017-02-28T12:13:03.363Z,9308
2017-02-28T12:14:04.720Z,8076
2017-02-28T12:15:05.955Z,8372
2017-02-28T12:16:07.225Z,8712
2017-02-28T12:17:08.548Z,8800
2017-02-28T12:18:09.797Z,12612
2017-02-28T12:19:11.046Z,12436
2017-02-28T12:20:12.306Z,11500
2017-02-28T12:21:13.594Z,9304
2017-02-28T12:22:14.847Z,8940
2017-02-28T12:23:16.079Z,8836
2017-02-28T12:24:17.421Z,10992
2017-02-28T12:25:18.826Z,10524
2017-02-28T12:26:20.029Z,8872
2017-02-28T12:27:21.267Z,7720
2017-02-28T12:28:22.506Z,7572
2017-02-28T12:29:23.764Z,7760
2017-02-28T12:30:25.054Z,6928
2017-02-28T12:31:26.295Z,7092
2017-02-28T12:32:27.546Z,7568
2017-02-28T12:33:28.782Z,9208
2017-02-28T12:34:30.053Z,7728
2017-02-28T12:35:31.401Z,6356
2017-02-28T12:36:32.639Z,6280
2017-02-28T12:37:33.883Z,5724
2017-02-28T12:38:35.137Z,5608
2017-02-28T12:39:36.397Z,6636
2017-02-28T12:40:37.641Z,6120
2017-02-28T12:41:38.926Z,5692
2017-02-28T12:42:40.210Z,5328
2017-02-28T12:43:41.554Z,4288
2017-02-28T12:44:42.793Z,6012
2017-02-28T12:45:44.036Z,7720
2017-02-28T12:46:45.281Z,7672
2017-02-28T12:47:46.668Z,6652
2017-02-28T12:48:47.902Z,5168
2017-02-28T12:49:49.202Z,4144
2017-02-28T12:50:50.439Z,4056
2017-02-28T12:51:51.670Z,3928
2017-02-28T12:52:52.910Z,4244
2017-02-28T12:53:54.153Z,4484
2017-02-28T12:54:55.507Z,3964
2017-02-28T12:55:56.744Z,3836
2017-02-28T12:56:57.972Z,4556
2017-02-28T12:57:59.208Z,4876
2017-02-28T12:59:00.457Z,4996
2017-02-28T13:00:01.700Z,6452
2017-02-28T13:01:03.031Z,8708
2017-02-28T13:02:04.307Z,8592
2017-02-28T13:03:05.553Z,7328
2017-02-28T13:04:06.806Z,5700
2017-02-28T13:05:08.080Z,6052
2017-02-28T13:06:09.360Z,6856
2017-02-28T13:07:10.595Z,6988
2017-02-28T13:08:11.900Z,7396
2017-02-28T13:09:13.166Z,6824
2017-02-28T13:10:14.405Z,6560
2017-02-28T13:11:15.643Z,6480
2017-02-28T13:12:16.954Z,6896
2017-02-28T13:13:18.182Z,9288
2017-02-28T13:14:19.420Z,10400
2017-02-28T13:15:20.659Z,8568
2017-02-28T13:16:21.888Z,7596
2017-02-28T13:17:23.127Z,7028
2017-02-28T13:18:24.373Z,6968
2017-02-28T13:19:25.639Z,7036
2017-02-28T13:20:26.901Z,6944
2017-02-28T13:21:28.145Z,6980
2017-02-28T13:22:29.430Z,6864
2017-02-28T13:23:30.674Z,6204
2017-02-28T13:24:31.928Z,6008
2017-02-28T13:25:33.303Z,5832
2017-02-28T13:26:34.546Z,6284
2017-02-28T13:27:35.783Z,7444
2017-02-28T13:28:36.999Z,8840
2017-02-28T13:29:38.239Z,10080
2017-02-28T13:30:39.488Z,9032
2017-02-28T13:31:40.779Z,7732
2017-02-28T13:32:42.029Z,7072
2017-02-28T13:33:43.365Z,6804
2017-02-28T13:34:44.563Z,6692
2017-02-28T13:35:45.790Z,6628
2017-02-28T13:36:47.069Z,6572
2017-02-28T13:37:48.275Z,6500
2017-02-28T13:38:49.666Z,6392
2017-02-28T13:39:50.903Z,6252
2017-02-28T13:40:52.145Z,6104
2017-02-28T13:41:53.386Z,5968
2017-02-28T13:42:54.670Z,5860
2017-02-28T13:43:55.894Z,5804
2017-02-28T13:44:57.226Z,5788
2017-02-28T13:45:58.478Z,5756
2017-02-28T13:46:59.721Z,5768
2017-02-28T13:48:00.972Z,5800
2017-02-28T13:49:02.233Z,5784
2017-02-28T13:50:03.451Z,5752
2017-02-28T13:51:04.717Z,5752
2017-02-28T13:52:05.963Z,5792
2017-02-28T13:53:07.261Z,5692
2017-02-28T13:54:08.486Z,5620
2017-02-28T13:55:09.741Z,5592
2017-02-28T13:56:10.996Z,5552
2017-02-28T13:57:12.268Z,5536
2017-02-28T13:58:13.570Z,5636
2017-02-28T13:59:14.803Z,5760
2017-02-28T14:00:16.042Z,5656
2017-02-28T14:01:17.283Z,5596
2017-02-28T14:02:18.540Z,5636
2017-02-28T14:03:19.803Z,5516
2017-02-28T14:04:21.006Z,5336
2017-02-28T14:05:22.296Z,5212
2017-02-28T14:06:23.592Z,5160
2017-02-28T14:07:24.851Z,5136
2017-02-28T14:08:26.102Z,5220
2017-02-28T14:09:27.392Z,5340
2017-02-28T14:10:28.719Z,5500